sensor_id;sensor_type;location;lat;lon;timestamp;P1;durP1;ratioP1;P2;durP2;ratioP2
39518;SDS011;25200;53.394;10.414;2024-02-26T00:00:34;6.70;;;3.90;;
39518;SDS011;25200;53.394;10.414;2024-02-26T00:03:00;6.60;;;3.10;;
39518;SDS011;25200;53.394;10.414;2024-02-26T00:05:26;5.38;;;2.88;;
39518;SDS011;25200;53.394;10.414;2024-02-26T00:07:52;6.10;;;3.30;;
39518;SDS011;25200;53.394;10.414;2024-02-26T00:10:17;7.22;;;3.60;;
39518;SDS011;25200;53.394;10.414;2024-02-26T00:12:43;7.00;;;3.40;;
39518;SDS011;25200;53.394;10.414;2024-02-26T00:15:09;6.07;;;3.47;;
39518;SDS011;25200;53.394;10.414;2024-02-26T00:17:35;6.22;;;2.90;;
39518;SDS011;25200;53.394;10.414;2024-02-26T00:20:04;5.22;;;3.08;;
39518;SDS011;25200;53.394;10.414;2024-02-26T00:22:33;6.05;;;2.90;;
39518;SDS011;25200;53.394;10.414;2024-02-26T00:24:59;6.55;;;3.00;;
39518;SDS011;25200;53.394;10.414;2024-02-26T00:27:25;5.47;;;2.70;;
39518;SDS011;25200;53.394;10.414;2024-02-26T00:29:50;5.50;;;2.78;;
39518;SDS011;25200;53.394;10.414;2024-02-26T00:32:16;6.82;;;3.45;;
39518;SDS011;25200;53.394;10.414;2024-02-26T00:34:41;6.05;;;2.80;;
39518;SDS011;25200;53.394;10.414;2024-02-26T00:37:07;5.97;;;2.85;;
39518;SDS011;25200;53.394;10.414;2024-02-26T00:39:32;6.28;;;2.80;;
39518;SDS011;25200;53.394;10.414;2024-02-26T00:41:58;5.93;;;2.97;;
39518;SDS011;25200;53.394;10.414;2024-02-26T00:44:24;5.47;;;2.90;;
39518;SDS011;25200;53.394;10.414;2024-02-26T00:46:49;5.63;;;2.80;;
39518;SDS011;25200;53.394;10.414;2024-02-26T00:49:15;5.15;;;2.40;;
39518;SDS011;25200;53.394;10.414;2024-02-26T00:51:40;7.55;;;3.05;;
39518;SDS011;25200;53.394;10.414;2024-02-26T00:54:06;5.18;;;2.60;;
39518;SDS011;25200;53.394;10.414;2024-02-26T00:56:32;6.15;;;2.78;;
39518;SDS011;25200;53.394;10.414;2024-02-26T00:58:58;4.53;;;2.40;;
39518;SDS011;25200;53.394;10.414;2024-02-26T01:01:23;6.40;;;2.45;;
39518;SDS011;25200;53.394;10.414;2024-02-26T01:03:49;4.63;;;2.28;;
39518;SDS011;25200;53.394;10.414;2024-02-26T01:06:14;4.78;;;2.55;;
39518;SDS011;25200;53.394;10.414;2024-02-26T01:08:40;4.95;;;2.55;;
39518;SDS011;25200;53.394;10.414;2024-02-26T01:11:06;5.55;;;2.65;;
39518;SDS011;25200;53.394;10.414;2024-02-26T01:13:32;5.13;;;2.50;;
39518;SDS011;25200;53.394;10.414;2024-02-26T01:15:58;4.93;;;2.50;;
39518;SDS011;25200;53.394;10.414;2024-02-26T01:18:23;5.57;;;2.33;;
39518;SDS011;25200;53.394;10.414;2024-02-26T01:20:49;5.85;;;2.75;;
39518;SDS011;25200;53.394;10.414;2024-02-26T01:23:15;5.20;;;2.75;;
39518;SDS011;25200;53.394;10.414;2024-02-26T01:25:40;4.30;;;2.42;;
39518;SDS011;25200;53.394;10.414;2024-02-26T01:28:07;5.38;;;2.95;;
39518;SDS011;25200;53.394;10.414;2024-02-26T01:30:33;5.97;;;2.90;;
39518;SDS011;25200;53.394;10.414;2024-02-26T01:32:58;5.57;;;2.70;;
39518;SDS011;25200;53.394;10.414;2024-02-26T01:35:24;4.95;;;2.55;;
39518;SDS011;25200;53.394;10.414;2024-02-26T01:37:50;5.22;;;2.70;;
39518;SDS011;25200;53.394;10.414;2024-02-26T01:40:15;6.35;;;3.05;;
39518;SDS011;25200;53.394;10.414;2024-02-26T01:42:44;5.03;;;2.55;;
39518;SDS011;25200;53.394;10.414;2024-02-26T01:45:12;5.78;;;3.10;;
39518;SDS011;25200;53.394;10.414;2024-02-26T01:47:52;5.82;;;2.70;;
39518;SDS011;25200;53.394;10.414;2024-02-26T01:50:18;4.25;;;2.45;;
39518;SDS011;25200;53.394;10.414;2024-02-26T01:52:47;5.38;;;2.97;;
39518;SDS011;25200;53.394;10.414;2024-02-26T01:55:14;5.68;;;2.97;;
39518;SDS011;25200;53.394;10.414;2024-02-26T01:57:43;5.82;;;3.00;;
39518;SDS011;25200;53.394;10.414;2024-02-26T02:00:11;4.95;;;2.42;;
39518;SDS011;25200;53.394;10.414;2024-02-26T02:02:38;5.63;;;2.80;;
39518;SDS011;25200;53.394;10.414;2024-02-26T02:05:05;5.20;;;2.75;;
39518;SDS011;25200;53.394;10.414;2024-02-26T02:07:32;5.28;;;2.75;;
39518;SDS011;25200;53.394;10.414;2024-02-26T02:09:59;5.80;;;2.65;;
39518;SDS011;25200;53.394;10.414;2024-02-26T02:12:25;5.60;;;3.00;;
39518;SDS011;25200;53.394;10.414;2024-02-26T02:14:52;5.18;;;2.70;;
39518;SDS011;25200;53.394;10.414;2024-02-26T02:17:17;5.45;;;2.65;;
39518;SDS011;25200;53.394;10.414;2024-02-26T02:19:44;5.10;;;2.83;;
39518;SDS011;25200;53.394;10.414;2024-02-26T02:22:09;9.15;;;3.10;;
39518;SDS011;25200;53.394;10.414;2024-02-26T02:24:35;6.50;;;3.13;;
39518;SDS011;25200;53.394;10.414;2024-02-26T02:27:00;5.85;;;2.70;;
39518;SDS011;25200;53.394;10.414;2024-02-26T02:29:26;5.45;;;3.05;;
39518;SDS011;25200;53.394;10.414;2024-02-26T02:31:53;5.05;;;2.80;;
39518;SDS011;25200;53.394;10.414;2024-02-26T02:34:19;5.50;;;2.95;;
39518;SDS011;25200;53.394;10.414;2024-02-26T02:36:51;5.70;;;2.90;;
39518;SDS011;25200;53.394;10.414;2024-02-26T02:39:18;6.30;;;3.35;;
39518;SDS011;25200;53.394;10.414;2024-02-26T02:41:43;8.57;;;3.47;;
39518;SDS011;25200;53.394;10.414;2024-02-26T02:44:09;6.55;;;3.22;;
39518;SDS011;25200;53.394;10.414;2024-02-26T02:46:35;6.22;;;2.80;;
39518;SDS011;25200;53.394;10.414;2024-02-26T02:49:00;6.47;;;3.47;;
39518;SDS011;25200;53.394;10.414;2024-02-26T02:51:26;5.95;;;2.97;;
39518;SDS011;25200;53.394;10.414;2024-02-26T02:53:52;4.43;;;2.55;;
39518;SDS011;25200;53.394;10.414;2024-02-26T02:56:18;5.97;;;2.83;;
39518;SDS011;25200;53.394;10.414;2024-02-26T02:58:44;5.70;;;2.95;;
39518;SDS011;25200;53.394;10.414;2024-02-26T03:01:09;5.82;;;3.08;;
39518;SDS011;25200;53.394;10.414;2024-02-26T03:03:35;5.15;;;2.75;;
39518;SDS011;25200;53.394;10.414;2024-02-26T03:06:02;6.13;;;2.80;;
39518;SDS011;25200;53.394;10.414;2024-02-26T03:08:28;6.57;;;3.13;;
39518;SDS011;25200;53.394;10.414;2024-02-26T03:10:54;5.75;;;3.22;;
39518;SDS011;25200;53.394;10.414;2024-02-26T03:13:19;5.38;;;2.65;;
39518;SDS011;25200;53.394;10.414;2024-02-26T03:15:45;5.20;;;2.85;;
39518;SDS011;25200;53.394;10.414;2024-02-26T03:18:11;5.53;;;2.78;;
39518;SDS011;25200;53.394;10.414;2024-02-26T03:20:36;6.18;;;2.40;;
39518;SDS011;25200;53.394;10.414;2024-02-26T03:23:02;5.15;;;2.80;;
39518;SDS011;25200;53.394;10.414;2024-02-26T03:25:28;5.82;;;2.78;;
39518;SDS011;25200;53.394;10.414;2024-02-26T03:27:53;5.35;;;2.80;;
39518;SDS011;25200;53.394;10.414;2024-02-26T03:30:19;5.70;;;2.90;;
39518;SDS011;25200;53.394;10.414;2024-02-26T03:32:45;5.47;;;2.60;;
39518;SDS011;25200;53.394;10.414;2024-02-26T03:35:11;4.78;;;2.58;;
39518;SDS011;25200;53.394;10.414;2024-02-26T03:37:37;5.00;;;2.58;;
39518;SDS011;25200;53.394;10.414;2024-02-26T03:40:03;6.10;;;2.95;;
39518;SDS011;25200;53.394;10.414;2024-02-26T03:42:29;5.97;;;2.92;;
39518;SDS011;25200;53.394;10.414;2024-02-26T03:44:55;5.40;;;2.75;;
39518;SDS011;25200;53.394;10.414;2024-02-26T03:47:20;4.68;;;2.45;;
39518;SDS011;25200;53.394;10.414;2024-02-26T03:49:46;5.95;;;2.58;;
39518;SDS011;25200;53.394;10.414;2024-02-26T03:52:11;5.10;;;2.65;;
39518;SDS011;25200;53.394;10.414;2024-02-26T03:54:38;5.78;;;3.10;;
39518;SDS011;25200;53.394;10.414;2024-02-26T03:57:03;6.20;;;3.25;;
39518;SDS011;25200;53.394;10.414;2024-02-26T03:59:29;5.65;;;3.10;;
39518;SDS011;25200;53.394;10.414;2024-02-26T04:01:55;6.15;;;2.90;;
39518;SDS011;25200;53.394;10.414;2024-02-26T04:04:20;5.97;;;2.97;;
39518;SDS011;25200;53.394;10.414;2024-02-26T04:06:46;7.53;;;2.90;;
39518;SDS011;25200;53.394;10.414;2024-02-26T04:09:15;7.90;;;3.03;;
39518;SDS011;25200;53.394;10.414;2024-02-26T04:11:41;5.00;;;2.35;;
39518;SDS011;25200;53.394;10.414;2024-02-26T04:14:08;5.50;;;2.85;;
39518;SDS011;25200;53.394;10.414;2024-02-26T04:16:34;5.45;;;2.55;;
39518;SDS011;25200;53.394;10.414;2024-02-26T04:19:00;5.85;;;3.13;;
39518;SDS011;25200;53.394;10.414;2024-02-26T04:21:26;5.65;;;2.92;;
39518;SDS011;25200;53.394;10.414;2024-02-26T04:23:52;5.78;;;2.83;;
39518;SDS011;25200;53.394;10.414;2024-02-26T04:26:20;5.13;;;2.33;;
39518;SDS011;25200;53.394;10.414;2024-02-26T04:28:46;5.53;;;2.63;;
39518;SDS011;25200;53.394;10.414;2024-02-26T04:31:12;5.45;;;2.90;;
39518;SDS011;25200;53.394;10.414;2024-02-26T04:33:37;5.88;;;3.00;;
39518;SDS011;25200;53.394;10.414;2024-02-26T04:36:03;4.88;;;2.70;;
39518;SDS011;25200;53.394;10.414;2024-02-26T04:38:29;6.18;;;3.08;;
39518;SDS011;25200;53.394;10.414;2024-02-26T04:40:55;6.00;;;2.70;;
39518;SDS011;25200;53.394;10.414;2024-02-26T04:43:20;4.65;;;2.40;;
39518;SDS011;25200;53.394;10.414;2024-02-26T04:45:46;5.63;;;2.70;;
39518;SDS011;25200;53.394;10.414;2024-02-26T04:48:11;5.30;;;2.95;;
39518;SDS011;25200;53.394;10.414;2024-02-26T04:50:37;5.43;;;3.25;;
39518;SDS011;25200;53.394;10.414;2024-02-26T04:53:03;5.53;;;2.90;;
39518;SDS011;25200;53.394;10.414;2024-02-26T04:55:28;6.45;;;3.40;;
39518;SDS011;25200;53.394;10.414;2024-02-26T04:57:54;4.68;;;2.75;;
39518;SDS011;25200;53.394;10.414;2024-02-26T05:00:19;5.78;;;2.95;;
39518;SDS011;25200;53.394;10.414;2024-02-26T05:02:45;5.43;;;2.63;;
39518;SDS011;25200;53.394;10.414;2024-02-26T05:05:11;7.13;;;3.30;;
39518;SDS011;25200;53.394;10.414;2024-02-26T05:07:40;6.90;;;3.25;;
39518;SDS011;25200;53.394;10.414;2024-02-26T05:10:07;6.53;;;3.03;;
39518;SDS011;25200;53.394;10.414;2024-02-26T05:12:33;6.55;;;3.20;;
39518;SDS011;25200;53.394;10.414;2024-02-26T05:15:00;6.95;;;3.50;;
39518;SDS011;25200;53.394;10.414;2024-02-26T05:17:26;6.78;;;3.30;;
39518;SDS011;25200;53.394;10.414;2024-02-26T05:19:52;6.68;;;3.40;;
39518;SDS011;25200;53.394;10.414;2024-02-26T05:22:18;6.35;;;3.05;;
39518;SDS011;25200;53.394;10.414;2024-02-26T05:24:43;7.10;;;3.50;;
39518;SDS011;25200;53.394;10.414;2024-02-26T05:27:09;7.28;;;3.30;;
39518;SDS011;25200;53.394;10.414;2024-02-26T05:29:35;7.22;;;3.63;;
39518;SDS011;25200;53.394;10.414;2024-02-26T05:32:01;6.75;;;3.25;;
39518;SDS011;25200;53.394;10.414;2024-02-26T05:34:26;7.30;;;3.38;;
39518;SDS011;25200;53.394;10.414;2024-02-26T05:36:52;6.30;;;3.03;;
39518;SDS011;25200;53.394;10.414;2024-02-26T05:39:18;5.65;;;3.03;;
39518;SDS011;25200;53.394;10.414;2024-02-26T05:41:44;6.32;;;3.20;;
39518;SDS011;25200;53.394;10.414;2024-02-26T05:44:10;6.05;;;3.08;;
39518;SDS011;25200;53.394;10.414;2024-02-26T05:46:36;7.88;;;3.75;;
39518;SDS011;25200;53.394;10.414;2024-02-26T05:49:02;6.47;;;3.55;;
39518;SDS011;25200;53.394;10.414;2024-02-26T05:51:28;5.72;;;3.10;;
39518;SDS011;25200;53.394;10.414;2024-02-26T05:53:53;5.80;;;3.13;;
39518;SDS011;25200;53.394;10.414;2024-02-26T05:56:22;5.47;;;3.03;;
39518;SDS011;25200;53.394;10.414;2024-02-26T05:58:48;5.95;;;3.53;;
39518;SDS011;25200;53.394;10.414;2024-02-26T06:01:17;6.57;;;3.17;;
39518;SDS011;25200;53.394;10.414;2024-02-26T06:03:43;6.45;;;3.78;;
39518;SDS011;25200;53.394;10.414;2024-02-26T06:06:10;7.03;;;3.83;;
39518;SDS011;25200;53.394;10.414;2024-02-26T06:08:36;5.95;;;3.03;;
39518;SDS011;25200;53.394;10.414;2024-02-26T06:11:05;6.28;;;3.35;;
39518;SDS011;25200;53.394;10.414;2024-02-26T06:13:31;6.80;;;3.33;;
39518;SDS011;25200;53.394;10.414;2024-02-26T06:15:57;6.05;;;3.38;;
39518;SDS011;25200;53.394;10.414;2024-02-26T06:18:23;6.55;;;3.40;;
39518;SDS011;25200;53.394;10.414;2024-02-26T06:20:48;6.38;;;3.25;;
39518;SDS011;25200;53.394;10.414;2024-02-26T06:23:14;5.80;;;3.17;;
39518;SDS011;25200;53.394;10.414;2024-02-26T06:25:39;6.35;;;3.20;;
39518;SDS011;25200;53.394;10.414;2024-02-26T06:28:07;6.95;;;3.30;;
39518;SDS011;25200;53.394;10.414;2024-02-26T06:30:33;5.75;;;3.40;;
39518;SDS011;25200;53.394;10.414;2024-02-26T06:32:59;6.45;;;3.30;;
39518;SDS011;25200;53.394;10.414;2024-02-26T06:35:24;6.68;;;3.20;;
39518;SDS011;25200;53.394;10.414;2024-02-26T06:37:50;5.85;;;3.03;;
39518;SDS011;25200;53.394;10.414;2024-02-26T06:40:18;6.38;;;3.50;;
39518;SDS011;25200;53.394;10.414;2024-02-26T06:42:44;8.73;;;3.40;;
39518;SDS011;25200;53.394;10.414;2024-02-26T06:45:09;5.97;;;3.10;;
39518;SDS011;25200;53.394;10.414;2024-02-26T06:47:35;5.25;;;3.03;;
39518;SDS011;25200;53.394;10.414;2024-02-26T06:50:01;6.40;;;3.33;;
39518;SDS011;25200;53.394;10.414;2024-02-26T06:52:27;6.55;;;3.65;;
39518;SDS011;25200;53.394;10.414;2024-02-26T06:54:53;5.63;;;3.10;;
39518;SDS011;25200;53.394;10.414;2024-02-26T06:57:21;6.55;;;3.28;;
39518;SDS011;25200;53.394;10.414;2024-02-26T06:59:47;6.03;;;3.20;;
39518;SDS011;25200;53.394;10.414;2024-02-26T07:02:13;6.32;;;3.60;;
39518;SDS011;25200;53.394;10.414;2024-02-26T07:04:39;6.18;;;3.35;;
39518;SDS011;25200;53.394;10.414;2024-02-26T07:07:05;7.13;;;3.42;;
39518;SDS011;25200;53.394;10.414;2024-02-26T07:09:32;6.32;;;3.50;;
39518;SDS011;25200;53.394;10.414;2024-02-26T07:11:57;5.97;;;3.28;;
39518;SDS011;25200;53.394;10.414;2024-02-26T07:14:23;6.30;;;3.58;;
39518;SDS011;25200;53.394;10.414;2024-02-26T07:16:49;6.05;;;3.33;;
39518;SDS011;25200;53.394;10.414;2024-02-26T07:19:15;6.18;;;3.42;;
39518;SDS011;25200;53.394;10.414;2024-02-26T07:21:41;7.50;;;3.60;;
39518;SDS011;25200;53.394;10.414;2024-02-26T07:24:07;5.97;;;3.38;;
39518;SDS011;25200;53.394;10.414;2024-02-26T07:26:33;6.38;;;3.15;;
39518;SDS011;25200;53.394;10.414;2024-02-26T07:28:59;6.13;;;3.50;;
39518;SDS011;25200;53.394;10.414;2024-02-26T07:31:25;6.85;;;3.95;;
39518;SDS011;25200;53.394;10.414;2024-02-26T07:33:51;6.00;;;3.38;;
39518;SDS011;25200;53.394;10.414;2024-02-26T07:36:16;8.55;;;3.80;;
39518;SDS011;25200;53.394;10.414;2024-02-26T07:38:42;7.45;;;3.67;;
39518;SDS011;25200;53.394;10.414;2024-02-26T07:41:08;6.93;;;4.13;;
39518;SDS011;25200;53.394;10.414;2024-02-26T07:43:34;7.35;;;3.47;;
39518;SDS011;25200;53.394;10.414;2024-02-26T07:45:59;7.75;;;3.70;;
39518;SDS011;25200;53.394;10.414;2024-02-26T07:48:25;6.97;;;3.60;;
39518;SDS011;25200;53.394;10.414;2024-02-26T07:50:51;7.75;;;3.85;;
39518;SDS011;25200;53.394;10.414;2024-02-26T07:53:16;8.32;;;4.18;;
39518;SDS011;25200;53.394;10.414;2024-02-26T07:55:42;6.90;;;3.95;;
39518;SDS011;25200;53.394;10.414;2024-02-26T07:58:07;6.40;;;3.63;;
39518;SDS011;25200;53.394;10.414;2024-02-26T08:00:33;7.88;;;4.43;;
39518;SDS011;25200;53.394;10.414;2024-02-26T08:02:58;7.32;;;3.47;;
39518;SDS011;25200;53.394;10.414;2024-02-26T08:05:24;7.10;;;3.70;;
39518;SDS011;25200;53.394;10.414;2024-02-26T08:07:50;6.18;;;3.70;;
39518;SDS011;25200;53.394;10.414;2024-02-26T08:10:16;6.63;;;3.67;;
39518;SDS011;25200;53.394;10.414;2024-02-26T08:12:41;6.90;;;3.95;;
39518;SDS011;25200;53.394;10.414;2024-02-26T08:15:07;7.18;;;3.70;;
39518;SDS011;25200;53.394;10.414;2024-02-26T08:17:33;7.47;;;4.00;;
39518;SDS011;25200;53.394;10.414;2024-02-26T08:19:59;6.35;;;3.47;;
39518;SDS011;25200;53.394;10.414;2024-02-26T08:22:25;6.55;;;3.67;;
39518;SDS011;25200;53.394;10.414;2024-02-26T08:24:51;9.98;;;3.67;;
39518;SDS011;25200;53.394;10.414;2024-02-26T08:27:16;7.28;;;4.10;;
39518;SDS011;25200;53.394;10.414;2024-02-26T08:29:42;6.45;;;3.70;;
39518;SDS011;25200;53.394;10.414;2024-02-26T08:32:08;7.60;;;4.05;;
39518;SDS011;25200;53.394;10.414;2024-02-26T08:34:34;7.30;;;3.80;;
39518;SDS011;25200;53.394;10.414;2024-02-26T08:36:59;8.70;;;4.03;;
39518;SDS011;25200;53.394;10.414;2024-02-26T08:39:25;8.38;;;4.03;;
39518;SDS011;25200;53.394;10.414;2024-02-26T08:41:51;8.02;;;4.03;;
39518;SDS011;25200;53.394;10.414;2024-02-26T08:44:16;7.85;;;4.18;;
39518;SDS011;25200;53.394;10.414;2024-02-26T08:46:42;7.70;;;4.15;;
39518;SDS011;25200;53.394;10.414;2024-02-26T08:49:08;8.05;;;4.50;;
39518;SDS011;25200;53.394;10.414;2024-02-26T08:51:33;7.05;;;3.90;;
39518;SDS011;25200;53.394;10.414;2024-02-26T08:53:59;8.30;;;4.65;;
39518;SDS011;25200;53.394;10.414;2024-02-26T08:56:24;7.03;;;4.00;;
39518;SDS011;25200;53.394;10.414;2024-02-26T08:58:50;6.38;;;3.72;;
39518;SDS011;25200;53.394;10.414;2024-02-26T09:01:18;8.82;;;3.83;;
39518;SDS011;25200;53.394;10.414;2024-02-26T09:03:44;8.43;;;3.95;;
39518;SDS011;25200;53.394;10.414;2024-02-26T09:06:10;7.18;;;4.03;;
39518;SDS011;25200;53.394;10.414;2024-02-26T09:08:37;6.88;;;3.88;;
39518;SDS011;25200;53.394;10.414;2024-02-26T09:11:02;8.25;;;3.65;;
39518;SDS011;25200;53.394;10.414;2024-02-26T09:13:28;6.68;;;3.58;;
39518;SDS011;25200;53.394;10.414;2024-02-26T09:15:54;6.20;;;3.55;;
39518;SDS011;25200;53.394;10.414;2024-02-26T09:18:20;6.43;;;3.58;;
39518;SDS011;25200;53.394;10.414;2024-02-26T09:20:45;7.18;;;3.53;;
39518;SDS011;25200;53.394;10.414;2024-02-26T09:23:11;6.93;;;4.05;;
39518;SDS011;25200;53.394;10.414;2024-02-26T09:25:37;7.75;;;4.22;;
39518;SDS011;25200;53.394;10.414;2024-02-26T09:28:02;6.68;;;3.67;;
39518;SDS011;25200;53.394;10.414;2024-02-26T09:30:28;6.18;;;3.60;;
39518;SDS011;25200;53.394;10.414;2024-02-26T09:32:54;6.28;;;3.78;;
39518;SDS011;25200;53.394;10.414;2024-02-26T09:35:19;7.68;;;4.30;;
39518;SDS011;25200;53.394;10.414;2024-02-26T09:37:46;7.03;;;4.22;;
39518;SDS011;25200;53.394;10.414;2024-02-26T09:40:13;9.10;;;3.92;;
39518;SDS011;25200;53.394;10.414;2024-02-26T09:42:45;9.00;;;3.92;;
39518;SDS011;25200;53.394;10.414;2024-02-26T09:45:12;6.43;;;3.97;;
39518;SDS011;25200;53.394;10.414;2024-02-26T09:47:45;7.25;;;3.45;;
39518;SDS011;25200;53.394;10.414;2024-02-26T09:50:14;7.82;;;3.83;;
39518;SDS011;25200;53.394;10.414;2024-02-26T09:52:43;8.52;;;3.90;;
39518;SDS011;25200;53.394;10.414;2024-02-26T09:55:09;6.68;;;3.95;;
39518;SDS011;25200;53.394;10.414;2024-02-26T09:57:35;8.02;;;4.07;;
39518;SDS011;25200;53.394;10.414;2024-02-26T10:00:02;6.13;;;3.35;;
39518;SDS011;25200;53.394;10.414;2024-02-26T10:02:30;6.63;;;3.65;;
39518;SDS011;25200;53.394;10.414;2024-02-26T10:04:57;6.13;;;2.97;;
39518;SDS011;25200;53.394;10.414;2024-02-26T10:07:30;6.32;;;3.30;;
39518;SDS011;25200;53.394;10.414;2024-02-26T10:09:55;5.78;;;2.97;;
39518;SDS011;25200;53.394;10.414;2024-02-26T10:12:21;4.88;;;2.83;;
39518;SDS011;25200;53.394;10.414;2024-02-26T10:14:47;6.18;;;3.30;;
39518;SDS011;25200;53.394;10.414;2024-02-26T10:17:13;5.65;;;3.17;;
39518;SDS011;25200;53.394;10.414;2024-02-26T10:19:40;6.13;;;2.85;;
39518;SDS011;25200;53.394;10.414;2024-02-26T10:22:05;7.88;;;3.15;;
39518;SDS011;25200;53.394;10.414;2024-02-26T10:24:31;7.60;;;3.05;;
39518;SDS011;25200;53.394;10.414;2024-02-26T10:26:57;6.40;;;3.30;;
39518;SDS011;25200;53.394;10.414;2024-02-26T10:29:25;6.32;;;3.63;;
39518;SDS011;25200;53.394;10.414;2024-02-26T10:31:51;5.70;;;3.10;;
39518;SDS011;25200;53.394;10.414;2024-02-26T10:34:18;7.60;;;3.42;;
39518;SDS011;25200;53.394;10.414;2024-02-26T10:36:44;6.22;;;3.03;;
39518;SDS011;25200;53.394;10.414;2024-02-26T10:39:10;6.57;;;3.40;;
39518;SDS011;25200;53.394;10.414;2024-02-26T10:41:37;7.63;;;3.15;;
39518;SDS011;25200;53.394;10.414;2024-02-26T10:44:03;6.00;;;3.25;;
39518;SDS011;25200;53.394;10.414;2024-02-26T10:46:29;6.90;;;3.55;;
39518;SDS011;25200;53.394;10.414;2024-02-26T10:48:55;5.72;;;3.25;;
39518;SDS011;25200;53.394;10.414;2024-02-26T10:51:28;7.93;;;3.40;;
39518;SDS011;25200;53.394;10.414;2024-02-26T10:53:58;5.73;;;3.07;;
39518;SDS011;25200;53.394;10.414;2024-02-26T10:56:29;7.35;;;3.03;;
39518;SDS011;25200;53.394;10.414;2024-02-26T10:58:58;5.30;;;2.90;;
39518;SDS011;25200;53.394;10.414;2024-02-26T11:01:24;7.03;;;3.40;;
39518;SDS011;25200;53.394;10.414;2024-02-26T11:03:52;5.70;;;3.10;;
39518;SDS011;25200;53.394;10.414;2024-02-26T11:06:18;6.15;;;3.15;;
39518;SDS011;25200;53.394;10.414;2024-02-26T11:08:49;6.57;;;3.00;;
39518;SDS011;25200;53.394;10.414;2024-02-26T11:11:16;5.68;;;3.08;;
39518;SDS011;25200;53.394;10.414;2024-02-26T11:13:44;6.55;;;2.97;;
39518;SDS011;25200;53.394;10.414;2024-02-26T11:16:14;5.28;;;2.70;;
39518;SDS011;25200;53.394;10.414;2024-02-26T11:18:43;6.07;;;2.85;;
39518;SDS011;25200;53.394;10.414;2024-02-26T11:21:13;5.25;;;2.90;;
39518;SDS011;25200;53.394;10.414;2024-02-26T11:23:41;5.93;;;3.10;;
39518;SDS011;25200;53.394;10.414;2024-02-26T11:26:07;5.18;;;3.00;;
39518;SDS011;25200;53.394;10.414;2024-02-26T11:28:35;5.35;;;2.88;;
39518;SDS011;25200;53.394;10.414;2024-02-26T11:31:04;6.40;;;3.50;;
39518;SDS011;25200;53.394;10.414;2024-02-26T11:33:32;7.30;;;3.30;;
39518;SDS011;25200;53.394;10.414;2024-02-26T11:36:00;6.93;;;2.90;;
39518;SDS011;25200;53.394;10.414;2024-02-26T11:38:33;5.45;;;2.90;;
39518;SDS011;25200;53.394;10.414;2024-02-26T11:40:59;4.78;;;2.75;;
39518;SDS011;25200;53.394;10.414;2024-02-26T11:44:10;6.50;;;2.83;;
39518;SDS011;25200;53.394;10.414;2024-02-26T11:48:58;5.50;;;3.08;;
39518;SDS011;25200;53.394;10.414;2024-02-26T11:51:26;7.22;;;3.10;;
39518;SDS011;25200;53.394;10.414;2024-02-26T11:53:52;5.28;;;3.00;;
39518;SDS011;25200;53.394;10.414;2024-02-26T11:58:48;7.07;;;3.58;;
39518;SDS011;25200;53.394;10.414;2024-02-26T12:04:08;6.40;;;3.10;;
39518;SDS011;25200;53.394;10.414;2024-02-26T12:06:43;4.78;;;2.80;;
39518;SDS011;25200;53.394;10.414;2024-02-26T12:09:30;5.72;;;2.60;;
39518;SDS011;25200;53.394;10.414;2024-02-26T12:12:00;7.93;;;3.10;;
39518;SDS011;25200;53.394;10.414;2024-02-26T12:14:27;6.78;;;3.17;;
39518;SDS011;25200;53.394;10.414;2024-02-26T12:16:53;6.30;;;3.33;;
39518;SDS011;25200;53.394;10.414;2024-02-26T12:19:21;7.55;;;3.13;;
39518;SDS011;25200;53.394;10.414;2024-02-26T12:21:50;5.75;;;3.22;;
39518;SDS011;25200;53.394;10.414;2024-02-26T12:24:18;7.93;;;3.40;;
39518;SDS011;25200;53.394;10.414;2024-02-26T12:26:45;6.40;;;3.45;;
39518;SDS011;25200;53.394;10.414;2024-02-26T12:29:10;6.88;;;3.22;;
39518;SDS011;25200;53.394;10.414;2024-02-26T12:31:36;5.85;;;3.33;;
39518;SDS011;25200;53.394;10.414;2024-02-26T12:34:03;5.57;;;3.45;;
39518;SDS011;25200;53.394;10.414;2024-02-26T12:36:29;6.45;;;3.90;;
39518;SDS011;25200;53.394;10.414;2024-02-26T12:38:55;7.18;;;4.00;;
39518;SDS011;25200;53.394;10.414;2024-02-26T12:41:22;6.95;;;3.70;;
39518;SDS011;25200;53.394;10.414;2024-02-26T12:43:48;9.70;;;4.00;;
39518;SDS011;25200;53.394;10.414;2024-02-26T12:46:13;7.00;;;3.80;;
39518;SDS011;25200;53.394;10.414;2024-02-26T12:48:42;7.85;;;3.80;;
39518;SDS011;25200;53.394;10.414;2024-02-26T12:51:09;6.63;;;4.15;;
39518;SDS011;25200;53.394;10.414;2024-02-26T12:53:37;7.97;;;4.32;;
39518;SDS011;25200;53.394;10.414;2024-02-26T12:56:04;7.00;;;4.03;;
39518;SDS011;25200;53.394;10.414;2024-02-26T12:58:32;7.63;;;4.07;;
39518;SDS011;25200;53.394;10.414;2024-02-26T13:00:59;8.95;;;4.60;;
39518;SDS011;25200;53.394;10.414;2024-02-26T13:03:25;8.18;;;4.57;;
39518;SDS011;25200;53.394;10.414;2024-02-26T13:05:52;8.00;;;4.90;;
39518;SDS011;25200;53.394;10.414;2024-02-26T13:08:21;10.10;;;5.45;;
39518;SDS011;25200;53.394;10.414;2024-02-26T13:10:47;8.48;;;4.72;;
39518;SDS011;25200;53.394;10.414;2024-02-26T13:13:17;7.75;;;5.00;;
39518;SDS011;25200;53.394;10.414;2024-02-26T13:15:43;7.90;;;4.90;;
39518;SDS011;25200;53.394;10.414;2024-02-26T13:18:09;9.48;;;5.50;;
39518;SDS011;25200;53.394;10.414;2024-02-26T13:20:36;11.48;;;6.15;;
39518;SDS011;25200;53.394;10.414;2024-02-26T13:23:05;10.48;;;5.22;;
39518;SDS011;25200;53.394;10.414;2024-02-26T13:25:32;9.75;;;5.50;;
39518;SDS011;25200;53.394;10.414;2024-02-26T13:28:08;10.23;;;5.45;;
39518;SDS011;25200;53.394;10.414;2024-02-26T13:30:34;8.93;;;5.13;;
39518;SDS011;25200;53.394;10.414;2024-02-26T13:33:07;11.90;;;5.68;;
39518;SDS011;25200;53.394;10.414;2024-02-26T13:35:34;10.77;;;5.53;;
39518;SDS011;25200;53.394;10.414;2024-02-26T13:38:00;11.23;;;6.20;;
39518;SDS011;25200;53.394;10.414;2024-02-26T13:40:25;8.32;;;5.38;;
39518;SDS011;25200;53.394;10.414;2024-02-26T13:42:51;9.07;;;5.35;;
39518;SDS011;25200;53.394;10.414;2024-02-26T13:45:17;10.43;;;5.60;;
39518;SDS011;25200;53.394;10.414;2024-02-26T13:47:43;10.85;;;5.78;;
39518;SDS011;25200;53.394;10.414;2024-02-26T13:50:09;9.25;;;5.65;;
39518;SDS011;25200;53.394;10.414;2024-02-26T13:52:35;13.68;;;6.07;;
39518;SDS011;25200;53.394;10.414;2024-02-26T13:55:00;11.45;;;6.55;;
39518;SDS011;25200;53.394;10.414;2024-02-26T13:57:27;9.68;;;5.60;;
39518;SDS011;25200;53.394;10.414;2024-02-26T13:59:53;11.00;;;6.03;;
39518;SDS011;25200;53.394;10.414;2024-02-26T14:02:19;9.57;;;5.65;;
39518;SDS011;25200;53.394;10.414;2024-02-26T14:04:45;10.45;;;5.68;;
39518;SDS011;25200;53.394;10.414;2024-02-26T14:07:11;9.80;;;5.65;;
39518;SDS011;25200;53.394;10.414;2024-02-26T14:09:37;9.45;;;5.40;;
39518;SDS011;25200;53.394;10.414;2024-02-26T14:12:03;11.07;;;5.70;;
39518;SDS011;25200;53.394;10.414;2024-02-26T14:14:29;10.27;;;6.10;;
39518;SDS011;25200;53.394;10.414;2024-02-26T14:16:58;10.65;;;6.15;;
39518;SDS011;25200;53.394;10.414;2024-02-26T14:19:23;10.77;;;6.22;;
39518;SDS011;25200;53.394;10.414;2024-02-26T14:21:49;9.93;;;5.82;;
39518;SDS011;25200;53.394;10.414;2024-02-26T14:24:15;12.98;;;7.18;;
39518;SDS011;25200;53.394;10.414;2024-02-26T14:26:40;12.77;;;7.20;;
39518;SDS011;25200;53.394;10.414;2024-02-26T14:29:07;11.45;;;6.82;;
39518;SDS011;25200;53.394;10.414;2024-02-26T14:31:32;11.48;;;6.85;;
39518;SDS011;25200;53.394;10.414;2024-02-26T14:33:58;10.50;;;5.85;;
39518;SDS011;25200;53.394;10.414;2024-02-26T14:36:24;12.20;;;6.65;;